Airfield :
LOGIN :

Register | Disclaimer

   EN    FR    IT 

 










Legend :    VFR   Marginal VFR   IFR   Intensive IFR   Very Intensive IFR
Visi :
Ceiling :
>= 8 km
>= 3000ft
5 to 8 km
1000 to 3000 ft
1500m to 5 km
500 to 1000 ft
800 to 1500m
200 to 500 ft
< 800m
< 200 ft
Symbols :   Thunderstorms  Fog  Heavy snow  Heavy precipitations  Wind > 20 kt
SIGMETs :     Misc.  Thunderstorms  Icing  Turbulence  Mountain Waves  Volcanic Ashes






- Airport Elevation : 140 ft
- IATA code : NYO


ESKN - Skavsta

CURRENT METAR :
  • 311950Z 00000KT CAVOK 15/05 Q1029

EXPIRED METARs :
  • 311920Z 22001KT CAVOK 16/05 Q1029
  • 311850Z VRB03KT CAVOK 18/06 Q1028
  • 311820Z 04005KT CAVOK 19/04 Q1028
  • 311750Z 05007KT 020V080 CAVOK 20/02 Q1028
  • 311720Z 07008KT CAVOK 21/04 Q1028

TAF TAF ESKN
Valid from the 31 at 18:00 until the 01 at 18:00 UTC


311730Z 3118/0118 05008KT CAVOK
PROB40 0109/0117 15010KT



MET'MAP, your aeronautical weather chart ! - Copyright ORBIFLY December 2007 - Disclaimer

ORBIFLY MET'MAP TEAM :

Programming & Development : Alexandra Zaïnal
Concept & original design : Baudouin d'Aumeries
Assistance for programming : Marc-Olivier Méhu
Technical & hardware support : Manuel Goepfert

Contact : metmap@orbifly.com




SOURCES & CREDITS :

   NOAA